Atlantic City International Airport Atlantic City US
ICAO: KACY
IATA: ACY
Category: Medium
Scheduled Services: Yes

Elevation: 75 ft
TransAlt. 18000 ft.

Airport Communications:
APP/DEP:38.55
APP/DEP:124.6
ATIS:108.6
CLNC DEL:127.85
GND:121.9
ANG OPS:138.12
MILLVILLE RDO:122.55
TWR:120.3

KACY Zoom In..

If you have problems with the map follow the link
https://www.worldairports.se/pages/airport.php?
ICAO=KACY

Runways:

(A) RW 04 length 6144 ft width 150 ft
---- / hdg 38

(B) RW 13 length 10000 ft width 150 ft
ILS 109.10 / hdg 128

(C) RW 22 length 6144 ft width 150 ft
---- / hdg 218

(D) RW 31 length 10000 ft width 150 ft
ILS 109.10 / hdg 308

Location; KACY
Day. 29 / Time. 16.54 Zulu
* Altimeter: 30.08
* Temperature: 06° c. 42.8°f.
* Wind from: 350° Speed 11 kn.
Dewpoint: -06° c.
Visibility: 10 Statute Miles.
Clouds: Broken 4100 ft.

KACY 291654Z 35011KT 10SM BKN041 06/M06 A3008 RMK AO2 SLP186 T00561056


Wind From 350°
Speed 11 kn.

 
 
jpsmedia worldairports.se 2020   terms of use